createdAt,value
2023-01-05T00:03:15.242Z,3.50
2023-01-05T00:08:20.620Z,1.57
2023-01-05T00:13:44.077Z,3.47
2023-01-05T00:19:07.769Z,1.17
2023-01-05T00:24:13.226Z,2.47
2023-01-05T00:29:18.615Z,3.27
2023-01-05T00:34:24.128Z,3.20
2023-01-05T00:39:29.507Z,2.93
2023-01-05T00:44:34.952Z,2.33
2023-01-05T00:49:40.475Z,1.13
2023-01-05T00:54:45.933Z,2.23
2023-01-05T00:59:51.376Z,3.10
2023-01-05T01:04:57.373Z,2.87
2023-01-05T01:10:02.844Z,1.90
2023-01-05T01:15:11.232Z,2.90
2023-01-05T01:20:17.887Z,1.73
2023-01-05T01:25:23.587Z,1.43
2023-01-05T01:30:29.118Z,2.57
2023-01-05T01:35:34.690Z,2.63
2023-01-05T01:40:42.176Z,1.27
2023-01-05T01:45:47.896Z,0.73
2023-01-05T01:50:56.038Z,1.93
2023-01-05T01:56:04.599Z,0.97
2023-01-05T02:01:10.836Z,2.73
2023-01-05T02:06:16.936Z,4.83
2023-01-05T02:12:00.544Z,3.67
2023-01-05T02:17:27.339Z,0.97
2023-01-05T02:22:53.142Z,3.37
2023-01-05T02:28:35.711Z,5.60
2023-01-05T02:33:55.895Z,3.90
2023-01-05T02:39:11.105Z,3.57
2023-01-05T02:44:21.172Z,1.90
2023-01-05T02:49:29.893Z,3.83
2023-01-05T02:54:38.454Z,4.73
2023-01-05T02:59:47.039Z,1.37
2023-01-05T03:05:07.998Z,3.27
2023-01-05T03:10:33.079Z,3.43
2023-01-05T03:15:40.889Z,3.27
2023-01-05T03:20:49.901Z,3.53
2023-01-05T03:26:14.690Z,2.27
2023-01-05T03:31:46.781Z,1.40
2023-01-05T03:36:55.261Z,2.20
2023-01-05T03:42:01.545Z,3.47
2023-01-05T03:47:07.263Z,5.13
2023-01-05T03:52:13.240Z,9.23
2023-01-05T03:57:19.479Z,2.03
2023-01-05T04:02:25.677Z,3.77
2023-01-05T04:07:31.579Z,3.27
2023-01-05T04:12:37.453Z,2.67
2023-01-05T04:17:43.412Z,5.87
2023-01-05T04:22:50.040Z,8.17
2023-01-05T04:27:57.135Z,3.07
2023-01-05T04:33:02.974Z,6.07
2023-01-05T04:38:08.794Z,5.27
2023-01-05T04:43:14.507Z,5.60
2023-01-05T04:48:20.864Z,6.80
2023-01-05T04:53:26.452Z,4.70
2023-01-05T04:58:32.688Z,5.57
2023-01-05T05:03:38.182Z,5.53
2023-01-05T05:08:45.418Z,4.93
2023-01-05T05:13:51.030Z,5.20
2023-01-05T05:18:57.738Z,7.53
2023-01-05T05:24:04.768Z,10.47
2023-01-05T05:29:12.084Z,8.10
2023-01-05T05:34:17.972Z,8.27
2023-01-05T05:39:23.430Z,10.73
2023-01-05T05:44:28.885Z,9.07
2023-01-05T05:49:34.263Z,5.60
2023-01-05T05:54:39.693Z,5.23
2023-01-05T05:59:45.205Z,4.20
2023-01-05T06:04:50.730Z,9.27
2023-01-05T06:09:57.051Z,5.63
2023-01-05T06:15:02.655Z,9.27
2023-01-05T06:20:09.838Z,6.40
2023-01-05T06:25:15.979Z,6.30
2023-01-05T06:30:21.489Z,4.93
2023-01-05T06:35:27.206Z,8.67
2023-01-05T06:40:32.890Z,5.70
2023-01-05T06:45:38.417Z,7.67
2023-01-05T06:50:43.992Z,8.23
2023-01-05T06:55:49.422Z,5.13
2023-01-05T07:00:57.982Z,4.33
2023-01-05T07:06:05.989Z,5.70
2023-01-05T07:11:11.853Z,8.87
2023-01-05T07:16:18.590Z,6.03
2023-01-05T07:21:24.093Z,4.43
2023-01-05T07:26:29.530Z,2.17
2023-01-05T07:31:34.950Z,6.73
2023-01-05T07:36:40.581Z,7.23
2023-01-05T07:41:46.405Z,3.17
2023-01-05T07:46:53.909Z,4.13
2023-01-05T07:51:59.369Z,2.53
2023-01-05T07:57:05.091Z,3.77
2023-01-05T08:02:11.562Z,3.43
2023-01-05T08:07:17.151Z,6.13
2023-01-05T08:12:22.613Z,3.17
2023-01-05T08:17:28.011Z,6.77
2023-01-05T08:22:33.620Z,5.37
2023-01-05T08:27:39.011Z,3.23
2023-01-05T08:32:44.528Z,4.00
2023-01-05T08:37:49.982Z,1.73
2023-01-05T08:42:55.362Z,2.07
2023-01-05T08:48:02.416Z,2.37
2023-01-05T08:53:07.878Z,3.87
2023-01-05T08:58:13.310Z,3.57
2023-01-05T09:03:18.764Z,3.67
2023-01-05T09:08:24.209Z,2.93
2023-01-05T09:13:29.658Z,4.00
2023-01-05T09:18:35.108Z,3.40
2023-01-05T09:23:41.419Z,1.60
2023-01-05T09:28:47.271Z,2.63
2023-01-05T09:33:53.193Z,2.00
2023-01-05T09:38:59.015Z,2.47
2023-01-05T09:44:18.220Z,3.53
2023-01-05T09:49:25.795Z,3.43
2023-01-05T09:54:34.903Z,2.27
2023-01-05T09:59:46.175Z,1.10
2023-01-05T10:04:54.333Z,3.17
2023-01-05T10:10:02.997Z,5.13
2023-01-05T10:15:20.754Z,2.87
2023-01-05T10:20:44.613Z,3.60
2023-01-05T10:26:02.553Z,2.97
2023-01-05T10:31:19.966Z,2.97
2023-01-05T10:42:05.567Z,2.80
2023-01-05T10:47:14.768Z,2.23
2023-01-05T10:52:23.376Z,2.80
2023-01-05T10:57:36.693Z,2.13
2023-01-05T11:02:44.925Z,1.00
2023-01-05T11:07:57.895Z,0.87
2023-01-05T11:13:09.703Z,2.70
2023-01-05T11:18:27.074Z,0.70
2023-01-05T11:23:41.764Z,1.60
2023-01-05T11:29:01.586Z,3.73
2023-01-05T11:34:10.410Z,1.93
2023-01-05T11:39:36.728Z,1.67
2023-01-05T11:44:50.919Z,1.90
2023-01-05T11:50:07.157Z,2.47
2023-01-05T11:55:40.102Z,3.93
2023-01-05T12:01:23.484Z,4.43
2023-01-05T12:06:34.582Z,1.80
2023-01-05T12:11:45.810Z,2.67
2023-01-05T12:16:54.513Z,1.00
2023-01-05T12:22:32.755Z,2.30
2023-01-05T12:28:23.762Z,1.80
2023-01-05T12:39:06.111Z,3.37
2023-01-05T12:44:26.297Z,3.37
2023-01-05T12:49:40.785Z,1.67
2023-01-05T12:54:52.682Z,2.00
2023-01-05T13:00:01.171Z,4.30
2023-01-05T13:05:21.403Z,2.97
2023-01-05T13:10:32.825Z,3.87
2023-01-05T13:15:42.216Z,2.77
2023-01-05T13:20:53.639Z,2.93
2023-01-05T13:26:07.780Z,3.10
2023-01-05T13:31:36.075Z,3.40
2023-01-05T13:36:56.033Z,1.67
2023-01-05T13:42:23.947Z,3.80
2023-01-05T13:47:47.444Z,2.83
2023-01-05T13:53:01.688Z,2.23
2023-01-05T13:58:09.559Z,3.83
2023-01-05T14:03:23.215Z,1.57
2023-01-05T14:08:37.735Z,2.37
2023-01-05T14:13:52.285Z,2.20
2023-01-05T14:19:16.033Z,2.50
2023-01-05T14:24:33.528Z,3.23
2023-01-05T14:29:59.598Z,3.30
2023-01-05T14:35:26.337Z,3.70
2023-01-05T14:40:51.234Z,2.60
2023-01-05T14:46:02.565Z,1.57
2023-01-05T14:51:12.853Z,1.90
2023-01-05T14:56:21.354Z,1.60
2023-01-05T15:07:13.018Z,2.83
2023-01-05T15:12:23.928Z,1.10
2023-01-05T15:17:45.947Z,1.20
2023-01-05T15:23:03.658Z,4.23
2023-01-05T15:28:46.563Z,2.97
2023-01-05T15:33:55.043Z,1.57
2023-01-05T15:39:00.951Z,4.20
2023-01-05T15:44:07.148Z,4.57
2023-01-05T15:49:27.705Z,2.40
2023-01-05T15:54:34.483Z,2.00
2023-01-05T15:59:41.890Z,4.00
2023-01-05T16:04:47.471Z,2.30
2023-01-05T16:09:52.999Z,3.00
2023-01-05T16:15:01.876Z,1.57
2023-01-05T16:20:10.377Z,1.77
2023-01-05T16:25:18.908Z,1.17
2023-01-05T16:30:33.614Z,2.07
2023-01-05T16:35:47.699Z,2.47
2023-01-05T16:41:12.379Z,1.83
2023-01-05T16:46:22.540Z,3.27
2023-01-05T16:51:37.450Z,4.07
2023-01-05T16:56:58.056Z,1.40
2023-01-05T17:02:06.489Z,1.57
2023-01-05T17:07:12.520Z,5.03
2023-01-05T17:12:18.538Z,2.33
2023-01-05T17:17:25.003Z,1.67
2023-01-05T17:22:30.509Z,1.57
2023-01-05T17:27:36.043Z,2.50
2023-01-05T17:32:41.447Z,1.70
2023-01-05T17:37:47.063Z,2.43
2023-01-05T17:42:52.575Z,2.50
2023-01-05T17:47:58.433Z,4.90
2023-01-05T17:53:05.943Z,1.70
2023-01-05T17:58:14.471Z,1.83
2023-01-05T18:03:22.545Z,1.23
2023-01-05T18:08:28.806Z,1.70
2023-01-05T18:13:34.969Z,2.73
2023-01-05T18:18:41.926Z,1.67
2023-01-05T18:23:47.510Z,1.93
2023-01-05T18:28:54.679Z,2.03
2023-01-05T18:34:00.134Z,2.27
2023-01-05T18:39:06.456Z,1.63
2023-01-05T18:44:11.989Z,1.97
2023-01-05T18:49:18.418Z,1.67
2023-01-05T18:54:24.055Z,2.07
2023-01-05T18:59:29.525Z,1.63
2023-01-05T19:04:35.135Z,2.97
2023-01-05T19:09:40.638Z,4.33
2023-01-05T19:14:46.080Z,2.20
2023-01-05T19:19:51.473Z,2.50
2023-01-05T19:24:58.675Z,2.77
2023-01-05T19:30:04.200Z,1.77
2023-01-05T19:35:10.303Z,1.53
2023-01-05T19:40:15.936Z,1.97
2023-01-05T19:45:21.594Z,1.73
2023-01-05T19:50:27.289Z,2.33
2023-01-05T19:55:32.669Z,3.03
2023-01-05T20:00:38.057Z,2.10
2023-01-05T20:05:43.668Z,2.00
2023-01-05T20:10:49.215Z,2.67
2023-01-05T20:15:54.636Z,3.00
2023-01-05T20:21:01.565Z,4.07
2023-01-05T20:26:13.106Z,2.00
2023-01-05T20:31:25.913Z,3.37
2023-01-05T20:36:31.749Z,3.27
2023-01-05T20:41:40.093Z,2.43
2023-01-05T20:46:48.476Z,1.67
2023-01-05T20:51:55.039Z,1.77
2023-01-05T20:57:22.832Z,3.37
2023-01-05T21:02:28.333Z,2.53
2023-01-05T21:07:33.872Z,1.77
2023-01-05T21:12:39.493Z,2.13
2023-01-05T21:17:44.987Z,1.53
2023-01-05T21:22:50.485Z,1.73
2023-01-05T21:27:55.999Z,3.67
2023-01-05T21:33:01.460Z,3.93
2023-01-05T21:38:07.712Z,3.07
2023-01-05T21:43:13.201Z,3.27
2023-01-05T21:48:18.615Z,2.70
2023-01-05T21:53:42.053Z,2.60
2023-01-05T21:58:47.979Z,2.50
2023-01-05T22:03:53.751Z,2.40
2023-01-05T22:08:59.693Z,2.80
2023-01-05T22:14:05.446Z,2.70
2023-01-05T22:19:14.160Z,3.57
2023-01-05T22:24:19.707Z,2.63
2023-01-05T22:29:25.735Z,2.97
2023-01-05T22:34:32.001Z,3.60
2023-01-05T22:39:37.469Z,3.70
2023-01-05T22:44:42.996Z,7.17
2023-01-05T22:49:48.541Z,7.10
2023-01-05T22:54:54.075Z,3.97
2023-01-05T22:59:59.799Z,4.80
2023-01-05T23:05:05.846Z,5.03
2023-01-05T23:10:11.869Z,3.33
2023-01-05T23:15:17.502Z,4.57
2023-01-05T23:20:24.657Z,4.40
2023-01-05T23:25:30.030Z,5.00
2023-01-05T23:30:35.433Z,3.63
2023-01-05T23:35:41.017Z,5.90
2023-01-05T23:40:48.506Z,5.13
2023-01-05T23:45:55.835Z,8.47
2023-01-05T23:51:01.346Z,3.23
2023-01-05T23:56:12.923Z,5.53
